Time;durP1;ratioP1;P1;durP2;ratioP2;P2;SDS_P1;SDS_P2;PMS_P1;PMS_P2;Temp;Humidity;BMP_temperature;BMP_pressure;BME280_temperature;BME280_humidity;BME280_pressure;Samples;Min_cycle;Max_cycle;Signal;HPM_P1;HPM_P2
2021/12/08 00:01:12;;;;;;;16.35;6.47;;;;;;;-12.31;100.00;99714.59;5130566;27;20051;-57
2021/12/08 00:03:38;;;;;;;16.20;6.82;;;;;;;-12.29;100.00;99707.25;5134343;28;20138;-57
2021/12/08 00:06:06;;;;;;;19.17;6.35;;;;;;;-12.27;100.00;99707.88;5133740;28;20047;-58
2021/12/08 00:08:33;;;;;;;14.77;6.35;;;;;;;-12.45;100.00;99696.09;5133986;28;20054;-57
2021/12/08 00:13:58;;;;;;;18.00;6.38;;;;;;;-12.53;100.00;99703.38;5050608;28;20045;-56
2021/12/08 00:16:24;;;;;;;14.73;6.18;;;;;;;-12.69;100.00;99697.50;5113708;28;20081;-56
2021/12/08 00:18:50;;;;;;;17.70;6.65;;;;;;;-12.63;100.00;99695.84;5133682;28;20047;-53
2021/12/08 00:21:19;;;;;;;16.92;7.00;;;;;;;-12.50;100.00;99700.34;5133865;28;20139;-55
2021/12/08 00:23:45;;;;;;;16.73;6.35;;;;;;;-12.52;100.00;99697.13;5133569;28;20112;-54
2021/12/08 00:26:12;;;;;;;14.55;5.60;;;;;;;-12.54;100.00;99699.13;5134080;28;20084;-58
2021/12/08 00:28:38;;;;;;;13.73;6.28;;;;;;;-12.64;100.00;99695.06;5133601;28;20517;-57
2021/12/08 00:31:06;;;;;;;18.23;5.65;;;;;;;-12.68;100.00;99680.63;5134032;28;20103;-56
2021/12/08 00:33:34;;;;;;;11.38;5.97;;;;;;;-12.64;100.00;99670.47;5133643;28;20421;-57
2021/12/08 00:36:02;;;;;;;13.82;6.38;;;;;;;-12.63;100.00;99674.72;5133605;28;20046;-57
2021/12/08 00:38:30;;;;;;;12.38;6.07;;;;;;;-12.65;100.00;99668.84;5133220;28;20051;-55
2021/12/08 00:40:57;;;;;;;13.90;6.00;;;;;;;-12.72;100.00;99657.47;5133252;28;20142;-56
2021/12/08 00:43:24;;;;;;;14.00;6.43;;;;;;;-12.66;100.00;99657.50;5133492;28;20057;-59
2021/12/08 00:45:51;;;;;;;13.48;6.32;;;;;;;-12.67;100.00;99644.47;5133306;28;20047;-58
2021/12/08 00:48:17;;;;;;;11.80;5.45;;;;;;;-12.68;100.00;99634.94;5133328;28;20054;-55
2021/12/08 00:50:44;;;;;;;18.45;6.50;;;;;;;-12.68;100.00;99641.00;5133177;28;20138;-58
2021/12/08 00:53:11;;;;;;;15.13;6.35;;;;;;;-12.71;100.00;99622.94;5133026;28;20059;-55
2021/12/08 00:55:38;;;;;;;13.48;5.88;;;;;;;-12.75;100.00;99619.09;5132972;28;20130;-57
2021/12/08 00:58:05;;;;;;;13.88;6.00;;;;;;;-12.86;100.00;99617.84;5133367;28;20054;-56
2021/12/08 01:00:35;;;;;;;12.02;6.80;;;;;;;-12.84;100.00;99620.28;5133115;28;20104;-56
2021/12/08 01:03:02;;;;;;;15.27;5.53;;;;;;;-12.87;100.00;99615.41;5133086;28;20051;-58
2021/12/08 01:05:31;;;;;;;11.07;5.90;;;;;;;-12.88;100.00;99619.06;5132939;28;20488;-55
2021/12/08 01:07:58;;;;;;;22.08;5.72;;;;;;;-12.84;100.00;99621.09;5132719;28;20096;-58
2021/12/08 01:10:26;;;;;;;21.02;6.60;;;;;;;-12.90;100.00;99606.06;5133075;28;20130;-56
2021/12/08 01:12:54;;;;;;;14.25;6.22;;;;;;;-12.92;100.00;99608.09;5131626;27;20097;-57
2021/12/08 01:15:24;;;;;;;13.20;5.90;;;;;;;-12.85;100.00;99601.00;5132847;28;20069;-57
2021/12/08 01:17:50;;;;;;;14.95;5.50;;;;;;;-12.95;100.00;99586.56;5132606;28;20043;-56
2021/12/08 01:20:17;;;;;;;13.05;6.05;;;;;;;-12.91;100.00;99580.69;5132812;28;20083;-55
2021/12/08 01:22:45;;;;;;;18.15;7.00;;;;;;;-13.00;100.00;99578.44;5132597;28;20089;-57
2021/12/08 01:25:11;;;;;;;14.52;6.90;;;;;;;-13.01;100.00;99566.25;5132833;28;20053;-58
2021/12/08 01:27:38;;;;;;;16.42;6.43;;;;;;;-13.03;100.00;99566.44;5132694;28;20059;-55
2021/12/08 01:30:08;;;;;;;11.13;4.70;;;;;;;-13.09;100.00;99559.38;5132719;28;20051;-57
2021/12/08 01:32:35;;;;;;;13.45;5.35;;;;;;;-13.10;100.00;99552.44;5132641;28;20430;-57
2021/12/08 01:35:04;;;;;;;12.55;4.78;;;;;;;-13.20;100.00;99546.75;5132752;28;20169;-56
2021/12/08 01:37:30;;;;;;;14.95;5.65;;;;;;;-13.09;100.00;99543.53;5132643;28;20187;-57
2021/12/08 01:39:56;;;;;;;13.93;5.68;;;;;;;-13.08;100.00;99545.16;5132170;28;20078;-52
2021/12/08 01:42:29;;;;;;;14.05;6.05;;;;;;;-13.05;100.00;99544.75;5132272;28;20072;-56
2021/12/08 01:47:40;;;;;;;12.73;5.80;;;;;;;-13.10;100.00;99531.34;5132442;28;20097;-57
2021/12/08 01:50:09;;;;;;;11.70;5.82;;;;;;;-13.23;100.00;99511.03;5132271;28;20054;-58
2021/12/08 01:52:35;;;;;;;7.60;3.85;;;;;;;-13.08;100.00;99516.13;5132295;28;20094;-56
2021/12/08 01:55:01;;;;;;;12.45;4.78;;;;;;;-13.10;100.00;99521.59;5132540;28;20051;-57
2021/12/08 01:57:28;;;;;;;14.20;6.25;;;;;;;-13.19;100.00;99516.69;5132110;28;20046;-57
2021/12/08 01:59:54;;;;;;;13.45;5.45;;;;;;;-13.30;100.00;99497.84;5132181;28;20058;-55
2021/12/08 02:02:21;;;;;;;11.50;5.47;;;;;;;-13.28;100.00;99502.94;5131998;28;20053;-55
2021/12/08 02:04:48;;;;;;;9.52;5.05;;;;;;;-13.26;100.00;99510.66;5132227;28;20050;-57
2021/12/08 02:07:14;;;;;;;8.48;4.50;;;;;;;-13.31;100.00;99511.25;5131792;28;20043;-57
2021/12/08 02:09:42;;;;;;;15.18;5.53;;;;;;;-13.43;100.00;99499.66;5132201;28;20085;-58
2021/12/08 02:12:09;;;;;;;6.75;4.50;;;;;;;-13.45;100.00;99512.25;5131726;28;20414;-57
2021/12/08 02:14:35;;;;;;;13.70;5.30;;;;;;;-13.44;100.00;99522.59;5131865;28;20051;-57
2021/12/08 02:17:02;;;;;;;10.15;5.30;;;;;;;-13.41;100.00;99538.03;5131811;28;20047;-54
2021/12/08 02:19:28;;;;;;;14.50;5.60;;;;;;;-13.37;100.00;99544.53;5131753;28;20091;-55
2021/12/08 02:21:55;;;;;;;10.60;5.28;;;;;;;-13.38;100.00;99544.72;5131645;28;20047;-56
2021/12/08 02:24:22;;;;;;;8.93;5.05;;;;;;;-13.40;100.00;99544.09;5131373;27;20421;-54
2021/12/08 02:26:51;;;;;;;10.82;5.60;;;;;;;-13.32;100.00;99546.56;5131820;28;20045;-56
2021/12/08 02:29:23;;;;;;;11.65;5.00;;;;;;;-13.37;100.00;99551.63;5131517;28;20557;-56
2021/12/08 02:31:56;;;;;;;12.30;5.40;;;;;;;-13.45;100.00;99549.19;5132145;28;20105;-55
2021/12/08 02:48:07;;;;;;;8.68;4.32;;;;;;;-13.49;100.00;99540.03;5131358;28;20046;-55
2021/12/08 02:50:36;;;;;;;13.57;5.03;;;;;;;-13.50;100.00;99536.56;5131577;28;20191;-53
2021/12/08 02:53:04;;;;;;;14.65;6.53;;;;;;;-13.45;100.00;99543.91;5131301;28;20050;-55
2021/12/08 02:55:31;;;;;;;11.73;5.05;;;;;;;-13.55;100.00;99523.19;5131243;28;20050;-55
2021/12/08 02:58:00;;;;;;;12.35;5.70;;;;;;;-13.57;100.00;99530.47;5131378;28;20092;-55
2021/12/08 03:00:30;;;;;;;9.35;4.65;;;;;;;-13.62;100.00;99519.75;5131013;28;20051;-55
2021/12/08 03:02:58;;;;;;;11.40;6.15;;;;;;;-13.63;100.00;99523.38;5131339;28;20386;-59
2021/12/08 03:05:26;;;;;;;13.43;5.32;;;;;;;-13.67;100.00;99527.41;5131030;28;20050;-56
2021/12/08 03:07:53;;;;;;;15.00;5.88;;;;;;;-13.70;100.00;99522.53;5131300;28;20608;-56
2021/12/08 03:10:24;;;;;;;20.27;6.35;;;;;;;-13.78;100.00;99528.81;5131335;28;20077;-57
2021/12/08 03:12:50;;;;;;;18.65;5.07;;;;;;;-13.76;100.00;99539.94;5130947;28;20134;-55
2021/12/08 03:15:18;;;;;;;14.70;6.32;;;;;;;-13.69;100.00;99550.50;5131038;28;20043;-54
2021/12/08 03:17:45;;;;;;;14.15;5.18;;;;;;;-13.78;100.00;99542.00;5130742;28;20138;-57
2021/12/08 03:20:14;;;;;;;12.18;5.78;;;;;;;-13.80;100.00;99544.81;5131049;28;20492;-54
2021/12/08 03:22:45;;;;;;;10.73;4.72;;;;;;;-13.81;100.00;99548.47;5130737;28;20537;-56
2021/12/08 03:25:15;;;;;;;10.75;4.85;;;;;;;-13.90;100.00;99541.72;5130809;28;20051;-52
2021/12/08 03:27:48;;;;;;;15.55;5.63;;;;;;;-13.85;100.00;99556.97;5130771;28;20092;-55
2021/12/08 03:30:18;;;;;;;11.73;5.72;;;;;;;-13.78;100.00;99560.44;5130893;28;20047;-54
2021/12/08 03:32:45;;;;;;;11.40;6.05;;;;;;;-13.80;100.00;99567.72;5130610;28;20520;-55
2021/12/08 03:35:14;;;;;;;17.10;5.85;;;;;;;-13.94;100.00;99560.78;5130937;27;20099;-55
2021/12/08 03:37:43;;;;;;;15.70;5.88;;;;;;;-13.99;100.00;99561.38;5129754;28;20148;-54
2021/12/08 03:40:12;;;;;;;10.27;4.95;;;;;;;-14.00;100.00;99560.53;5130349;28;20444;-55
2021/12/08 03:42:39;;;;;;;10.13;5.68;;;;;;;-13.99;100.00;99571.91;5130464;28;20087;-55
2021/12/08 03:45:12;;;;;;;15.35;5.90;;;;;;;-13.90;100.00;99572.56;5130725;28;20412;-57
2021/12/08 03:47:43;;;;;;;10.52;5.70;;;;;;;-13.97;100.00;99567.25;5130993;28;20054;-55
2021/12/08 03:50:13;;;;;;;14.82;6.22;;;;;;;-13.90;100.00;99583.09;5130135;28;20050;-57
2021/12/08 03:52:39;;;;;;;13.48;4.70;;;;;;;-13.90;100.00;99578.63;5130767;28;20054;-54
2021/12/08 03:55:08;;;;;;;10.73;4.72;;;;;;;-13.90;100.00;99585.72;5130347;28;20054;-57
2021/12/08 03:57:35;;;;;;;16.52;6.90;;;;;;;-13.93;100.00;99580.84;5130864;28;20043;-57
2021/12/08 04:00:01;;;;;;;14.20;6.82;;;;;;;-13.97;100.00;99571.72;5130812;28;20468;-57
2021/12/08 04:02:28;;;;;;;14.25;5.25;;;;;;;-13.91;100.00;99579.66;5130314;28;20189;-56
2021/12/08 04:04:54;;;;;;;11.88;5.35;;;;;;;-13.92;100.00;99578.03;5130480;28;20573;-55
2021/12/08 04:07:21;;;;;;;11.43;5.63;;;;;;;-13.92;100.00;99579.84;5130356;28;20051;-55
2021/12/08 04:09:49;;;;;;;10.70;5.32;;;;;;;-13.88;100.00;99581.09;5130167;28;20089;-53
2021/12/08 04:12:18;;;;;;;12.05;5.38;;;;;;;-14.00;100.00;99581.63;5130236;28;20059;-58
2021/12/08 04:14:49;;;;;;;8.90;3.83;;;;;;;-14.08;100.00;99581.78;5130435;28;20191;-55
2021/12/08 04:17:18;;;;;;;13.60;6.20;;;;;;;-14.14;100.00;99582.56;5130166;28;20135;-55
2021/12/08 04:19:46;;;;;;;13.90;5.40;;;;;;;-14.15;100.00;99574.88;5130428;28;20053;-56
2021/12/08 04:22:16;;;;;;;10.50;4.95;;;;;;;-14.22;100.00;99582.75;5129785;28;20498;-57
2021/12/08 04:24:45;;;;;;;13.10;5.65;;;;;;;-14.23;100.00;99573.19;5130297;28;20047;-58
2021/12/08 04:27:17;;;;;;;15.65;6.28;;;;;;;-14.15;100.00;99585.41;5129898;28;20094;-57
2021/12/08 04:29:45;;;;;;;14.90;6.07;;;;;;;-14.20;100.00;99567.53;5130001;28;20047;-57
2021/12/08 04:32:14;;;;;;;17.42;6.40;;;;;;;-14.15;100.00;99578.31;5129943;28;20051;-57
2021/12/08 04:34:43;;;;;;;15.52;7.03;;;;;;;-14.15;100.00;99582.78;5129832;28;20148;-56
2021/12/08 04:37:18;;;;;;;13.57;5.53;;;;;;;-14.05;100.00;99589.31;5130119;28;20145;-56
2021/12/08 04:39:53;;;;;;;17.83;5.82;;;;;;;-14.08;100.00;99586.25;5129337;28;20537;-58
2021/12/08 04:42:31;;;;;;;18.20;6.38;;;;;;;-14.20;100.00;99572.81;5130057;28;20566;-56
2021/12/08 04:45:05;;;;;;;11.77;5.63;;;;;;;-14.39;100.00;99565.59;5129570;28;20521;-58
2021/12/08 04:47:35;;;;;;;14.50;6.78;;;;;;;-14.39;100.00;99574.34;5130782;27;20556;-56
2021/12/08 04:53:02;;;;;;;10.05;5.68;;;;;;;-14.32;100.00;99584.91;5127082;28;20363;-56
2021/12/08 05:01:21;;;;;;;17.95;7.10;;;;;;;-14.18;100.00;99589.25;5132999;28;20091;-56
2021/12/08 05:04:10;;;;;;;15.25;6.90;;;;;;;-14.21;100.00;99584.34;5132723;28;20058;-58
2021/12/08 05:06:45;;;;;;;11.45;4.53;;;;;;;-14.36;100.00;99579.22;5132502;28;20043;-56
2021/12/08 05:09:16;;;;;;;9.23;4.30;;;;;;;-14.39;100.00;99571.69;5132649;28;20051;-56
2021/12/08 05:11:46;;;;;;;14.98;5.63;;;;;;;-14.33;100.00;99572.72;5132596;28;20043;-58
2021/12/08 05:14:17;;;;;;;12.90;5.65;;;;;;;-14.42;100.00;99569.44;5133120;28;20058;-59
2021/12/08 05:16:46;;;;;;;11.85;5.28;;;;;;;-14.42;100.00;99572.09;5143886;27;20494;-60
2021/12/08 05:19:15;;;;;;;13.48;5.63;;;;;;;-14.43;100.00;99570.44;5153152;27;20046;-60
2021/12/08 05:21:45;;;;;;;15.45;5.70;;;;;;;-14.34;100.00;99577.19;5153271;27;20516;-59
2021/12/08 05:24:14;;;;;;;11.40;4.30;;;;;;;-14.37;100.00;99572.31;5145938;27;20051;-59
2021/12/08 05:26:45;;;;;;;12.27;5.97;;;;;;;-14.37;100.00;99577.56;5132332;28;20090;-59
2021/12/08 05:29:16;;;;;;;18.25;7.30;;;;;;;-14.32;100.00;99569.91;5131941;28;20047;-59
2021/12/08 05:31:43;;;;;;;16.63;6.47;;;;;;;-14.46;100.00;99557.66;5132727;28;20051;-56
2021/12/08 05:34:10;;;;;;;16.80;6.25;;;;;;;-14.44;100.00;99550.38;5132858;28;20361;-57
2021/12/08 05:36:38;;;;;;;14.35;6.15;;;;;;;-14.56;100.00;99537.00;5132328;28;20051;-63
2021/12/08 05:39:08;;;;;;;19.05;5.43;;;;;;;-14.63;100.00;99530.03;5132504;28;20058;-60
2021/12/08 05:41:38;;;;;;;10.73;5.57;;;;;;;-14.71;100.00;99542.34;5132443;28;20047;-62
2021/12/08 05:44:05;;;;;;;18.55;6.97;;;;;;;-14.73;100.00;99533.81;5115543;28;20089;-60
2021/12/08 05:46:34;;;;;;;11.63;5.47;;;;;;;-14.76;100.00;99530.75;5123172;28;20130;-57
2021/12/08 05:49:01;;;;;;;11.38;5.43;;;;;;;-14.78;100.00;99535.41;5129973;28;20078;-61
2021/12/08 05:51:29;;;;;;;11.52;5.57;;;;;;;-14.82;100.00;99540.25;5132085;27;20047;-60
2021/12/08 05:53:58;;;;;;;23.08;7.32;;;;;;;-14.82;100.00;99542.06;5152694;27;20057;-61
2021/12/08 05:56:25;;;;;;;16.50;6.40;;;;;;;-14.80;100.00;99555.84;5152227;27;20564;-63
2021/12/08 05:58:55;;;;;;;15.27;5.70;;;;;;;-14.80;100.00;99556.66;5151933;27;20046;-58
2021/12/08 06:01:27;;;;;;;16.10;6.57;;;;;;;-14.80;100.00;99545.31;5152572;27;20129;-58
2021/12/08 06:03:53;;;;;;;18.00;6.32;;;;;;;-14.78;100.00;99565.19;5152204;27;20046;-58
2021/12/08 06:06:22;;;;;;;14.98;5.20;;;;;;;-14.74;100.00;99568.25;5131433;28;20051;-55
2021/12/08 06:08:48;;;;;;;11.50;4.63;;;;;;;-14.73;100.00;99573.28;5131716;28;20058;-55
2021/12/08 06:11:16;;;;;;;12.88;5.55;;;;;;;-14.53;100.00;99591.06;5131527;28;20043;-53
2021/12/08 06:13:46;;;;;;;14.18;6.13;;;;;;;-14.33;100.00;99615.66;5131774;28;20077;-56
2021/12/08 06:16:14;;;;;;;29.60;8.77;;;;;;;-14.28;100.00;99620.38;5151877;27;20046;-55
2021/12/08 06:18:41;;;;;;;16.05;6.95;;;;;;;-14.05;100.00;99641.19;5152251;27;20046;-53
2021/12/08 06:21:13;;;;;;;16.73;5.55;;;;;;;-13.76;100.00;99648.88;5136156;27;20136;-59
2021/12/08 06:23:41;;;;;;;16.15;6.90;;;;;;;-14.06;100.00;99627.22;5124902;28;20067;-61
2021/12/08 06:26:09;;;;;;;23.75;7.50;;;;;;;-14.36;100.00;99589.75;5129828;28;20089;-61
2021/12/08 06:28:36;;;;;;;20.63;6.40;;;;;;;-14.41;100.00;99571.06;5130577;28;20051;-61
2021/12/08 06:31:05;;;;;;;11.85;5.80;;;;;;;-14.25;100.00;99567.31;5131145;28;20087;-61
2021/12/08 06:33:33;;;;;;;15.38;5.82;;;;;;;-14.30;100.00;99564.44;5130856;28;20098;-61
2021/12/08 06:36:04;;;;;;;18.80;6.30;;;;;;;-14.18;100.00;99570.00;5131397;28;20047;-61
2021/12/08 06:38:30;;;;;;;14.38;6.00;;;;;;;-14.16;100.00;99565.31;5131009;28;20085;-61
2021/12/08 06:41:01;;;;;;;12.32;5.53;;;;;;;-14.19;100.00;99557.81;5130200;28;20138;-62
2021/12/08 06:43:33;;;;;;;16.77;7.03;;;;;;;-14.18;100.00;99552.38;5131141;28;20499;-62
2021/12/08 06:46:00;;;;;;;15.85;7.45;;;;;;;-14.26;100.00;99540.19;5130717;28;20086;-62
2021/12/08 06:48:32;;;;;;;17.92;7.50;;;;;;;-14.28;100.00;99534.28;5130815;28;20043;-61
2021/12/08 06:51:03;;;;;;;16.13;7.07;;;;;;;-14.31;100.00;99520.69;5130653;28;20051;-61
2021/12/08 06:53:30;;;;;;;22.20;7.60;;;;;;;-14.16;100.00;99531.88;5130430;28;20085;-61
2021/12/08 06:56:00;;;;;;;16.40;6.97;;;;;;;-14.15;100.00;99514.28;5130855;28;20051;-61
2021/12/08 06:58:28;;;;;;;19.42;6.05;;;;;;;-14.10;100.00;99525.03;5130749;27;20055;-61
2021/12/08 07:01:11;;;;;;;19.52;6.72;;;;;;;-14.08;100.00;99533.56;5130733;28;20053;-61
2021/12/08 07:03:46;;;;;;;20.48;7.07;;;;;;;-14.19;100.00;99527.03;5130314;28;20099;-57
2021/12/08 07:06:41;;;;;;;22.48;7.30;;;;;;;-14.02;100.00;99548.59;5130560;28;20051;-57
2021/12/08 07:09:11;;;;;;;16.95;7.38;;;;;;;-13.62;100.00;99573.28;5130867;28;20051;-58
2021/12/08 07:11:39;;;;;;;14.95;7.15;;;;;;;-13.43;100.00;99590.16;5129272;27;20131;-65
2021/12/08 07:14:06;;;;;;;24.58;7.60;;;;;;;-13.42;100.00;99585.72;5130110;28;20051;-65
2021/12/08 07:16:35;;;;;;;21.20;7.72;;;;;;;-13.36;100.00;99564.63;5130782;28;20142;-65
2021/12/08 07:19:10;;;;;;;16.27;7.50;;;;;;;-13.46;100.00;99542.28;5130468;28;20083;-64
2021/12/08 07:21:46;;;;;;;22.90;8.55;;;;;;;-13.47;100.00;99519.56;5130650;28;20043;-59
2021/12/08 07:24:16;;;;;;;18.15;8.32;;;;;;;-13.32;100.00;99521.00;5130224;28;20057;-61
2021/12/08 07:26:44;;;;;;;17.40;8.13;;;;;;;-13.24;100.00;99498.88;5130624;28;20082;-59
2021/12/08 07:29:14;;;;;;;21.17;8.20;;;;;;;-13.34;100.00;99474.72;5129869;28;20487;-60
2021/12/08 07:31:46;;;;;;;19.15;7.80;;;;;;;-13.36;100.00;99458.28;5130701;28;20139;-63
2021/12/08 07:34:19;;;;;;;18.67;8.02;;;;;;;-13.25;100.00;99462.16;5130091;28;20058;-64
2021/12/08 07:36:51;;;;;;;18.67;5.70;;;;;;;-12.97;100.00;99477.75;5130357;28;20058;-65
2021/12/08 07:39:21;;;;;;;10.85;5.65;;;;;;;-12.67;100.00;99465.72;5130040;28;20080;-63
2021/12/08 07:42:09;;;;;;;19.55;8.30;;;;;;;-12.63;100.00;99442.34;5129992;28;20474;-62
2021/12/08 07:44:36;;;;;;;17.08;6.55;;;;;;;-12.69;100.00;99403.56;5130154;28;20073;-62
2021/12/08 07:47:08;;;;;;;18.48;7.38;;;;;;;-12.61;100.00;99374.28;5130374;28;20047;-64
2021/12/08 07:49:40;;;;;;;21.17;7.38;;;;;;;-12.34;100.00;99373.16;5130218;28;20491;-63
2021/12/08 07:52:12;;;;;;;20.33;8.75;;;;;;;-12.04;100.00;99353.28;5130443;28;20057;-63
2021/12/08 07:54:39;;;;;;;17.90;7.82;;;;;;;-11.87;100.00;99326.09;5130023;27;20504;-63
2021/12/08 07:57:09;;;;;;;16.65;6.28;;;;;;;-11.78;100.00;99267.63;5129843;28;20104;-64
2021/12/08 07:59:37;;;;;;;22.08;8.35;;;;;;;-11.61;100.00;99210.50;5130086;28;20083;-64
2021/12/08 08:02:07;;;;;;;15.10;7.00;;;;;;;-11.27;100.00;99185.28;5129194;28;20498;-65
2021/12/08 08:04:36;;;;;;;17.20;7.50;;;;;;;-11.20;100.00;99121.66;5129838;28;20070;-65
2021/12/08 08:07:05;;;;;;;16.77;7.40;;;;;;;-10.92;100.00;99062.84;5129911;28;20051;-66
2021/12/08 08:09:37;;;;;;;25.35;7.80;;;;;;;-10.67;100.00;99021.03;5129260;28;20088;-64
2021/12/08 08:12:08;;;;;;;17.08;7.40;;;;;;;-10.75;100.00;98936.66;5129853;28;20055;-67
2021/12/08 08:14:39;;;;;;;16.88;8.38;;;;;;;-10.57;100.00;98889.84;5129573;28;20051;-64
2021/12/08 08:17:09;;;;;;;18.00;7.28;;;;;;;-10.21;100.00;98860.31;5129394;28;20058;-59
2021/12/08 08:19:42;;;;;;;19.80;8.52;;;;;;;-10.08;100.00;98792.94;5129509;28;20697;-65
2021/12/08 08:22:11;;;;;;;16.15;7.25;;;;;;;-10.25;100.00;98728.50;5130215;27;20051;-65
2021/12/08 08:24:38;;;;;;;18.25;7.63;;;;;;;-10.46;100.00;98695.63;5133186;28;20562;-63
2021/12/08 08:27:08;;;;;;;13.25;7.20;;;;;;;-10.65;100.00;98679.13;5133161;28;20086;-63
2021/12/08 08:29:35;;;;;;;14.30;7.30;;;;;;;-10.67;100.00;98675.91;5132415;28;20085;-57
2021/12/08 08:32:06;;;;;;;18.08;8.45;;;;;;;-10.82;100.00;98665.84;5133056;28;20050;-55
2021/12/08 08:34:38;;;;;;;15.25;7.22;;;;;;;-11.08;100.00;98656.66;5133296;28;20051;-56
2021/12/08 08:37:08;;;;;;;17.42;7.70;;;;;;;-11.15;100.00;98677.97;5133478;27;20198;-53
2021/12/08 08:39:37;;;;;;;15.07;6.45;;;;;;;-11.31;100.00;98696.41;5132124;28;20061;-56
2021/12/08 08:42:07;;;;;;;14.80;6.88;;;;;;;-11.42;100.00;98719.22;5133055;28;20068;-57
2021/12/08 08:44:37;;;;;;;12.85;6.35;;;;;;;-11.46;100.00;98755.94;5126608;28;20401;-60
2021/12/08 08:47:07;;;;;;;14.43;5.63;;;;;;;-11.40;100.00;98796.50;5130859;28;20051;-61
2021/12/08 08:49:37;;;;;;;16.00;7.50;;;;;;;-11.33;100.00;98826.28;5132843;28;20047;-61
2021/12/08 08:52:13;;;;;;;14.15;6.38;;;;;;;-11.33;100.00;98854.59;5132684;28;20115;-60
2021/12/08 08:54:44;;;;;;;18.05;7.57;;;;;;;-11.43;100.00;98857.81;5132272;28;20051;-56
2021/12/08 08:57:15;;;;;;;13.07;6.32;;;;;;;-11.59;100.00;98858.50;5133018;28;20142;-59
2021/12/08 08:59:45;;;;;;;17.00;6.97;;;;;;;-11.69;100.00;98872.31;5132838;28;20099;-57
2021/12/08 09:02:17;;;;;;;14.40;6.78;;;;;;;-11.70;100.00;98921.72;5131831;28;20057;-56
2021/12/08 09:04:46;;;;;;;14.85;6.60;;;;;;;-11.65;100.00;98956.22;5131710;28;20213;-57
2021/12/08 09:07:19;;;;;;;14.85;6.35;;;;;;;-11.67;100.00;98990.03;5132650;28;20051;-58
2021/12/08 09:09:46;;;;;;;15.23;7.38;;;;;;;-11.65;100.00;99006.47;5119526;28;20060;-57
2021/12/08 09:12:18;;;;;;;12.35;5.53;;;;;;;-11.64;100.00;99021.31;5112041;28;20142;-59
2021/12/08 09:14:48;;;;;;;18.15;6.43;;;;;;;-11.56;100.00;99025.50;5111645;28;20059;-58
2021/12/08 09:17:17;;;;;;;14.20;6.15;;;;;;;-11.56;100.00;99037.91;5111793;28;20047;-59
2021/12/08 09:19:48;;;;;;;15.88;5.90;;;;;;;-11.54;100.00;99049.88;5111574;28;20048;-55
2021/12/08 09:22:20;;;;;;;14.05;6.28;;;;;;;-11.62;100.00;99053.66;5132535;27;20152;-57
2021/12/08 09:24:51;;;;;;;13.15;5.70;;;;;;;-11.60;100.00;99053.41;5132443;28;20078;-57
2021/12/08 09:27:22;;;;;;;19.00;7.47;;;;;;;-11.60;100.00;99050.75;5132125;27;20082;-56
2021/12/08 09:29:55;;;;;;;12.73;6.50;;;;;;;-11.64;100.00;99047.75;5132116;27;20054;-56
2021/12/08 09:32:26;;;;;;;15.48;6.32;;;;;;;-11.40;100.00;99076.94;5132231;27;20063;-55
2021/12/08 09:35:00;;;;;;;10.20;5.30;;;;;;;-11.26;100.00;99082.88;5145665;27;20482;-59
2021/12/08 09:37:31;;;;;;;10.52;5.97;;;;;;;-11.40;100.00;99064.53;5152726;27;20046;-59
2021/12/08 09:40:04;;;;;;;12.32;5.93;;;;;;;-11.33;100.00;99071.56;5151396;27;20057;-57
2021/12/08 09:42:40;;;;;;;13.53;6.13;;;;;;;-11.21;100.00;99083.00;5141467;27;20481;-57
2021/12/08 09:45:10;;;;;;;12.60;6.18;;;;;;;-11.16;100.00;99075.19;5152508;27;20517;-59
2021/12/08 09:47:36;;;;;;;11.45;5.07;;;;;;;-11.20;100.00;99044.91;5134531;27;20239;-58
2021/12/08 09:50:07;;;;;;;12.25;5.68;;;;;;;-11.16;100.00;99032.84;5132061;27;20044;-57
2021/12/08 09:52:35;;;;;;;13.00;6.28;;;;;;;-11.06;100.00;99025.19;5132104;27;20051;-57
2021/12/08 09:55:05;;;;;;;13.98;6.70;;;;;;;-11.16;100.00;99009.84;5131891;27;20047;-57
2021/12/08 09:57:32;;;;;;;15.32;6.15;;;;;;;-11.39;100.00;98994.72;5131921;27;20485;-59
2021/12/08 09:59:59;;;;;;;12.27;6.40;;;;;;;-11.34;100.00;99017.84;5151904;27;20134;-57
2021/12/08 10:02:32;;;;;;;21.88;6.60;;;;;;;-11.28;100.00;99032.81;5152587;27;20054;-58
2021/12/08 10:05:00;;;;;;;10.93;5.55;;;;;;;-11.23;100.00;99043.56;5152312;27;20402;-53
2021/12/08 10:07:28;;;;;;;15.43;6.32;;;;;;;-11.12;100.00;99064.97;5152258;27;20050;-60
2021/12/08 10:09:54;;;;;;;12.80;6.25;;;;;;;-11.02;100.00;99075.81;5152628;27;20061;-54
2021/12/08 10:12:21;;;;;;;11.98;5.97;;;;;;;-10.97;100.00;99078.59;5152332;27;20058;-58
2021/12/08 10:14:50;;;;;;;13.55;6.85;;;;;;;-10.92;100.00;99082.19;5152092;27;20129;-56
2021/12/08 10:17:17;;;;;;;18.10;7.22;;;;;;;-10.77;100.00;99094.97;5152450;27;20042;-58
2021/12/08 10:19:44;;;;;;;14.38;6.03;;;;;;;-10.84;100.00;99088.16;5152111;27;20406;-60
2021/12/08 10:22:18;;;;;;;13.68;6.28;;;;;;;-10.97;100.00;99075.94;5151981;27;20099;-61
2021/12/08 10:25:03;;;;;;;12.93;5.88;;;;;;;-10.84;100.00;99091.63;5152351;27;20479;-57
2021/12/08 10:27:30;;;;;;;12.50;6.32;;;;;;;-10.80;100.00;99113.16;5152323;27;20049;-62
2021/12/08 10:30:22;;;;;;;16.55;6.57;;;;;;;-10.78;100.00;99124.34;5152031;27;20058;-63
2021/12/08 10:32:49;;;;;;;10.85;6.05;;;;;;;-10.91;100.00;99131.44;5152247;27;20046;-62
2021/12/08 10:35:43;;;;;;;13.65;6.40;;;;;;;-11.00;100.00;99113.44;5142291;27;20062;-61
2021/12/08 10:38:10;;;;;;;9.07;4.53;;;;;;;-11.12;100.00;99124.03;5130914;27;20460;-62
2021/12/08 10:40:36;;;;;;;9.93;5.63;;;;;;;-11.14;100.00;99134.81;5130663;27;20140;-52
2021/12/08 10:43:13;;;;;;;11.15;5.95;;;;;;;-11.04;100.00;99159.94;5131279;27;20485;-58
2021/12/08 10:45:40;;;;;;;11.73;6.15;;;;;;;-10.95;100.00;99179.78;5130874;27;20047;-53
2021/12/08 10:48:07;;;;;;;15.02;6.53;;;;;;;-11.01;100.00;99186.78;5131070;27;20047;-58
2021/12/08 10:56:10;;;;;;;10.73;5.22;;;;;;;-10.66;100.00;99241.75;5130868;28;20057;-57
2021/12/08 10:58:39;;;;;;;13.98;6.80;;;;;;;-10.61;100.00;99247.16;5130846;27;20047;-52
2021/12/08 11:01:11;;;;;;;15.70;5.80;;;;;;;-10.33;100.00;99253.69;5130490;27;20164;-57
2021/12/08 11:03:39;;;;;;;11.82;6.20;;;;;;;-10.34;100.00;99257.38;5130471;27;20047;-59
2021/12/08 11:06:06;;;;;;;12.40;6.05;;;;;;;-10.20;100.00;99235.72;5130955;27;20051;-58
2021/12/08 11:08:35;;;;;;;12.50;5.00;;;;;;;-10.20;100.00;99227.75;5130610;27;20524;-59
2021/12/08 11:11:05;;;;;;;11.07;5.90;;;;;;;-10.10;100.00;99207.84;5130805;27;20089;-59
2021/12/08 11:13:34;;;;;;;12.38;5.65;;;;;;;-10.02;100.00;99197.72;5130839;27;20051;-58
2021/12/08 11:16:05;;;;;;;8.90;4.50;;;;;;;-9.96;100.00;99182.72;5130407;27;20047;-58
2021/12/08 11:18:33;;;;;;;10.52;5.38;;;;;;;-9.90;100.00;99165.06;5130404;27;20077;-53
2021/12/08 11:21:02;;;;;;;11.27;5.88;;;;;;;-9.55;100.00;99200.34;5130083;27;20055;-57
2021/12/08 11:23:42;;;;;;;9.55;5.00;;;;;;;-9.61;100.00;99158.81;5129905;27;20090;-56
2021/12/08 11:26:18;;;;;;;9.38;4.85;;;;;;;-9.76;100.00;99090.31;5129875;27;20138;-54
2021/12/08 11:28:46;;;;;;;13.85;5.80;;;;;;;-9.71;100.00;99074.50;5129968;27;20054;-53
2021/12/08 11:31:15;;;;;;;11.75;5.55;;;;;;;-9.53;100.00;99070.06;5130304;27;20509;-51
2021/12/08 11:33:48;;;;;;;11.35;5.45;;;;;;;-9.43;100.00;99048.22;5130326;27;20061;-57
2021/12/08 11:36:17;;;;;;;11.82;6.13;;;;;;;-9.53;100.00;99030.25;5148374;27;20074;-57
2021/12/08 11:38:45;;;;;;;12.43;5.90;;;;;;;-9.61;100.00;98991.63;5150653;27;20054;-57
2021/12/08 11:41:25;;;;;;;10.10;5.68;;;;;;;-9.75;100.00;98979.72;5150459;27;20047;-54
2021/12/08 11:43:54;;;;;;;9.30;5.18;;;;;;;-9.76;100.00;98980.75;5150211;27;20051;-58
2021/12/08 11:46:21;;;;;;;13.23;5.38;;;;;;;-9.78;100.00;98978.31;5150484;27;20054;-57
2021/12/08 11:49:04;;;;;;;11.45;5.50;;;;;;;-9.80;100.00;98977.75;5150586;27;20428;-58
2021/12/08 11:51:48;;;;;;;8.23;4.18;;;;;;;-10.04;100.00;98960.31;5150624;27;20042;-58
2021/12/08 11:54:23;;;;;;;11.18;6.22;;;;;;;-10.11;100.00;98980.88;5150350;27;20051;-58